createdAt,value
2023-01-12T00:01:47.769Z,98504.66
2023-01-12T00:04:15.674Z,98516.34
2023-01-12T00:06:42.987Z,98515.84
2023-01-12T00:09:10.763Z,98518.88
2023-01-12T00:11:38.821Z,98523.41
2023-01-12T00:14:07.219Z,98522.41
2023-01-12T00:16:41.133Z,98513.38
2023-01-12T00:19:18.549Z,98517.06
2023-01-12T00:22:12.111Z,98511.00
2023-01-12T00:24:41.617Z,98524.09
2023-01-12T00:27:11.683Z,98525.91
2023-01-12T00:29:38.883Z,98519.41
2023-01-12T00:32:07.290Z,98515.22
2023-01-12T00:34:34.483Z,98515.69
2023-01-12T00:37:02.198Z,98520.56
2023-01-12T00:39:29.248Z,98520.72
2023-01-12T00:42:14.852Z,98529.25
2023-01-12T00:45:00.185Z,98523.91
2023-01-12T05:47:29.725Z,98613.25
2023-01-12T05:49:56.589Z,98610.28
2023-01-12T05:52:23.557Z,98609.81
2023-01-12T05:54:50.486Z,98602.97
2023-01-12T05:57:17.463Z,98610.38
2023-01-12T05:59:44.443Z,98610.91
2023-01-12T06:02:14.114Z,98612.25
2023-01-12T06:04:41.115Z,98617.97
2023-01-12T06:07:08.244Z,98620.66
2023-01-12T06:09:36.186Z,98606.91
2023-01-12T06:12:21.548Z,98621.38
2023-01-12T06:14:48.522Z,98634.13
2023-01-12T06:17:18.148Z,98634.78
2023-01-12T06:19:45.077Z,98627.47
2023-01-12T06:22:12.082Z,98619.44
2023-01-12T06:24:39.002Z,98628.81
2023-01-12T06:27:06.068Z,98625.97
2023-01-12T06:29:34.155Z,98637.19
2023-01-12T06:32:01.072Z,98627.34
2023-01-12T06:34:28.073Z,98630.69
2023-01-12T06:36:56.120Z,98627.84
2023-01-12T06:39:23.008Z,98634.06
2023-01-12T06:42:08.712Z,98610.22
2023-01-12T06:44:35.691Z,98630.91
2023-01-12T06:47:03.797Z,98636.25
2023-01-12T06:49:30.756Z,98633.56
2023-01-12T06:51:57.787Z,98633.38
2023-01-12T06:54:24.693Z,98638.75
2023-01-12T06:56:51.769Z,98637.91
2023-01-12T06:59:18.703Z,98642.25
2023-01-12T07:01:45.737Z,98644.94
2023-01-12T07:04:12.691Z,98644.59
2023-01-12T07:06:39.636Z,98632.25
2023-01-12T07:09:06.806Z,98637.25
2023-01-12T07:11:33.691Z,98638.44
2023-01-12T07:14:00.652Z,98644.94
2023-01-12T07:16:27.635Z,98646.78
2023-01-12T07:18:54.976Z,98654.78
2023-01-12T07:21:22.434Z,98649.44
2023-01-12T07:23:49.306Z,98647.25
2023-01-12T07:26:16.274Z,98655.28
2023-01-12T07:28:43.314Z,98638.19
2023-01-12T07:31:12.496Z,98648.09
2023-01-12T07:33:40.273Z,98655.28
2023-01-12T07:36:07.359Z,98659.97
2023-01-12T07:38:34.254Z,98660.25
2023-01-12T07:41:02.649Z,98654.91
2023-01-12T07:43:30.650Z,98655.06
2023-01-12T07:45:58.502Z,98654.41
2023-01-12T07:48:27.757Z,98656.41
2023-01-12T07:50:55.158Z,98661.22
2023-01-12T07:53:22.442Z,98664.59
2023-01-12T07:55:49.506Z,98655.56
2023-01-12T07:58:16.650Z,98660.75
2023-01-12T08:00:43.619Z,98654.72
2023-01-12T08:03:14.272Z,98655.72
2023-01-12T08:05:44.197Z,98626.03
2023-01-12T08:08:11.116Z,98651.22
2023-01-12T08:10:39.080Z,98662.06
2023-01-12T08:13:05.965Z,98658.06
2023-01-12T08:15:38.924Z,98665.09
2023-01-12T08:18:29.325Z,98670.97
2023-01-12T08:21:00.315Z,98680.84
2023-01-12T08:23:34.806Z,98654.56
2023-01-12T08:26:07.681Z,98662.78
2023-01-12T08:28:39.445Z,98678.38
2023-01-12T08:31:10.757Z,98673.56
2023-01-12T08:33:38.737Z,98672.41
2023-01-12T08:36:06.594Z,98666.63
2023-01-12T08:38:33.593Z,98664.50
2023-01-12T08:41:19.313Z,98659.81
2023-01-12T08:44:06.665Z,98669.56
2023-01-12T08:46:52.583Z,98674.44
2023-01-12T08:49:24.555Z,98677.31
2023-01-12T08:51:51.593Z,98663.94
2023-01-12T08:54:20.220Z,98662.59
2023-01-12T08:56:47.946Z,98660.59
2023-01-12T08:59:16.350Z,98663.78
2023-01-12T09:01:43.842Z,98653.25
2023-01-12T09:04:11.257Z,98663.47
2023-01-12T09:06:41.492Z,98661.28
2023-01-12T09:09:12.178Z,98656.75
2023-01-12T09:11:42.337Z,98666.97
2023-01-12T09:14:10.739Z,98660.94
2023-01-12T09:16:37.946Z,98648.88
2023-01-12T09:19:05.300Z,98641.66
2023-01-12T09:21:33.244Z,98647.88
2023-01-12T09:24:00.223Z,98650.19
2023-01-12T09:26:32.124Z,98642.84
2023-01-12T09:29:04.498Z,98650.38
2023-01-12T09:31:33.144Z,98643.00
2023-01-12T09:34:00.787Z,98646.88
2023-01-12T09:36:29.395Z,98648.38
2023-01-12T09:38:56.576Z,98643.03
2023-01-12T09:41:44.820Z,98642.50
2023-01-12T09:45:09.905Z,98609.78
2023-01-12T09:47:40.018Z,98625.34
2023-01-12T09:50:10.671Z,98626.31
2023-01-12T09:53:00.788Z,98625.28
2023-01-12T09:55:46.382Z,98615.81
2023-01-12T09:58:27.855Z,98618.16
2023-01-12T10:00:57.530Z,98608.03
2023-01-12T10:03:35.942Z,98579.81
2023-01-12T10:06:03.259Z,98609.22
2023-01-12T10:08:52.380Z,98600.41
2023-01-12T10:11:19.282Z,98608.66
2023-01-12T10:14:04.958Z,98606.72
2023-01-12T10:17:00.893Z,98596.75
2023-01-12T10:19:50.792Z,98591.78
2023-01-12T10:22:38.671Z,98599.19
2023-01-12T10:25:30.075Z,98595.25
2023-01-12T10:28:00.599Z,98594.78
2023-01-12T10:30:36.462Z,98595.25
2023-01-12T10:33:29.541Z,98595.88
2023-01-12T10:36:18.776Z,98600.25
2023-01-12T10:38:58.015Z,98591.41
2023-01-12T10:41:26.984Z,98576.72
2023-01-12T10:43:56.876Z,98589.19
2023-01-12T10:46:27.199Z,98591.03
2023-01-12T10:49:31.175Z,98589.13
2023-01-12T10:52:00.740Z,98587.09
2023-01-12T10:54:41.635Z,98576.69
2023-01-12T10:57:23.478Z,98589.69
2023-01-12T10:59:57.380Z,98578.56
2023-01-12T11:02:29.258Z,98575.88
2023-01-12T11:04:56.938Z,98575.69
2023-01-12T11:07:29.168Z,98560.34
2023-01-12T11:10:19.367Z,98562.31
2023-01-12T11:13:00.684Z,98561.28
2023-01-12T11:15:29.997Z,98556.00
2023-01-12T11:18:15.348Z,98556.84
2023-01-12T11:20:50.777Z,98547.38
2023-01-12T11:23:43.989Z,98572.44
2023-01-12T11:26:19.643Z,98558.34
2023-01-12T11:28:56.042Z,98553.31
2023-01-12T11:31:28.443Z,98561.94
2023-01-12T11:34:34.940Z,98552.38
2023-01-12T11:37:14.708Z,98543.19
2023-01-12T11:39:44.145Z,98557.31
2023-01-12T11:42:41.856Z,98551.94
2023-01-12T11:45:15.609Z,98554.94
2023-01-12T11:48:18.720Z,98536.50
2023-01-12T11:50:48.799Z,98518.84
2023-01-12T11:53:22.510Z,98530.41
2023-01-12T11:56:01.510Z,98522.97
2023-01-12T11:58:52.927Z,98521.00
2023-01-12T12:01:49.393Z,98515.06
2023-01-12T12:04:21.869Z,98516.38
2023-01-12T12:07:05.500Z,98516.78
2023-01-12T12:09:54.086Z,98514.03
2023-01-12T12:12:33.636Z,98508.97
2023-01-12T12:15:21.941Z,98503.38
2023-01-12T12:18:05.558Z,98504.59
2023-01-12T12:20:51.630Z,98501.41
2023-01-12T12:23:27.232Z,98492.81
2023-01-12T12:26:12.163Z,98493.09
2023-01-12T12:28:48.175Z,98491.28
2023-01-12T12:31:30.355Z,98482.16
2023-01-12T12:34:14.071Z,98485.50
2023-01-12T12:37:10.488Z,98486.31
2023-01-12T12:39:53.124Z,98488.84
2023-01-12T12:42:57.465Z,98485.75
2023-01-12T12:45:42.615Z,98478.19
2023-01-12T12:48:21.700Z,98478.59
2023-01-12T12:51:08.196Z,98490.38
2023-01-12T12:53:41.606Z,98485.03
2023-01-12T12:56:15.183Z,98489.94
2023-01-12T12:58:57.873Z,98481.38
2023-01-12T13:01:24.973Z,98491.41
2023-01-12T13:03:53.363Z,98479.59
2023-01-12T13:06:40.461Z,98476.91
2023-01-12T13:09:12.867Z,98483.72
2023-01-12T13:11:59.220Z,98480.88
2023-01-12T13:14:38.178Z,98487.69
2023-01-12T13:17:19.937Z,98479.16
2023-01-12T13:20:10.752Z,98473.28
2023-01-12T13:22:49.093Z,98469.53
2023-01-12T13:25:19.739Z,98467.41
2023-01-12T13:27:56.882Z,98478.63
2023-01-12T13:30:29.789Z,98458.84
2023-01-12T13:33:11.712Z,98466.66
2023-01-12T13:35:40.494Z,98461.41
2023-01-12T13:38:44.036Z,98463.84
2023-01-12T13:41:13.923Z,98459.69
2023-01-12T13:43:43.108Z,98460.44
2023-01-12T13:46:25.780Z,98457.28
2023-01-12T13:48:55.672Z,98453.75
2023-01-12T13:51:28.525Z,98450.75
2023-01-12T13:54:04.515Z,98441.50
2023-01-12T13:56:32.317Z,98453.09
2023-01-12T13:59:01.877Z,98441.13
2023-01-12T14:01:39.574Z,98445.84
2023-01-12T14:04:18.054Z,98433.41
2023-01-12T14:07:12.044Z,98435.75
2023-01-12T14:09:41.893Z,98437.59
2023-01-12T14:12:37.986Z,98436.84
2023-01-12T14:15:45.609Z,98428.63
2023-01-12T14:18:17.519Z,98432.84
2023-01-12T14:20:50.522Z,98429.03
2023-01-12T14:23:27.961Z,98422.09
2023-01-12T14:26:17.832Z,98434.44
2023-01-12T14:28:47.247Z,98432.06
2023-01-12T14:31:39.685Z,98436.47
2023-01-12T14:34:21.034Z,98432.22
2023-01-12T14:36:48.930Z,98436.66
2023-01-12T14:39:20.870Z,98435.72
2023-01-12T14:42:14.183Z,98429.41
2023-01-12T14:45:12.248Z,98434.75
2023-01-12T14:47:39.472Z,98431.88
2023-01-12T14:50:21.996Z,98435.25
2023-01-12T14:52:49.550Z,98430.97
2023-01-12T14:55:19.532Z,98430.88
2023-01-12T14:57:57.178Z,98432.13
2023-01-12T15:00:28.784Z,98428.66
2023-01-12T15:02:57.866Z,98433.44
2023-01-12T15:05:33.821Z,98417.91
2023-01-12T15:08:27.037Z,98424.28
2023-01-12T15:11:06.620Z,98433.09
2023-01-12T15:13:35.719Z,98438.13
2023-01-12T15:16:23.457Z,98438.66
2023-01-12T15:19:09.354Z,98443.88
2023-01-12T15:21:56.489Z,98443.25
2023-01-12T15:24:46.752Z,98438.94
2023-01-12T15:27:19.839Z,98453.38
2023-01-12T15:29:47.641Z,98447.00
2023-01-12T15:32:22.668Z,98452.72
2023-01-12T15:34:50.102Z,98449.56
2023-01-12T15:37:21.981Z,98453.97
2023-01-12T15:39:48.918Z,98442.56
2023-01-12T15:42:20.194Z,98445.59
2023-01-12T15:44:49.526Z,98446.13
2023-01-12T15:47:20.097Z,98446.28
2023-01-12T15:49:49.001Z,98450.16
2023-01-12T15:52:24.906Z,98446.13
2023-01-12T15:54:52.228Z,98444.97
2023-01-12T15:57:19.352Z,98449.81
2023-01-12T15:59:46.324Z,98444.47
2023-01-12T16:02:27.743Z,98430.25
2023-01-12T16:04:54.789Z,98441.97
2023-01-12T16:07:22.141Z,98437.97
2023-01-12T16:09:50.864Z,98438.97
2023-01-12T16:12:18.554Z,98431.78
2023-01-12T16:14:45.586Z,98440.81
2023-01-12T16:17:12.502Z,98438.13
2023-01-12T16:19:42.834Z,98441.66
2023-01-12T16:22:28.213Z,98430.78
2023-01-12T16:24:57.154Z,98436.78
2023-01-12T16:27:27.029Z,98444.81
2023-01-12T16:29:54.377Z,98441.50
2023-01-12T16:32:26.037Z,98438.13
2023-01-12T16:34:53.562Z,98430.13
2023-01-12T16:37:23.320Z,98437.00
2023-01-12T16:39:50.448Z,98411.06
2023-01-12T16:42:17.429Z,98424.78
2023-01-12T16:44:44.396Z,98428.63
2023-01-12T16:47:17.103Z,98430.00
2023-01-12T16:49:44.692Z,98418.78
2023-01-12T16:52:15.602Z,98419.78
2023-01-12T16:54:43.008Z,98410.72
2023-01-12T16:57:16.166Z,98404.56
2023-01-12T16:59:43.319Z,98415.44
2023-01-12T17:02:16.010Z,98386.00
2023-01-12T17:04:45.018Z,98390.34
2023-01-12T17:07:12.977Z,98411.09
2023-01-12T17:09:40.320Z,98402.06
2023-01-12T17:12:07.941Z,98403.06
2023-01-12T17:14:35.537Z,98368.94
2023-01-12T17:17:06.966Z,98408.09
2023-01-12T17:19:35.602Z,98392.38
2023-01-12T17:22:03.226Z,98365.75
2023-01-12T17:24:32.032Z,98389.19
2023-01-12T17:26:59.715Z,98366.09
2023-01-12T17:29:27.987Z,98385.34
2023-01-12T17:32:03.632Z,98375.28
2023-01-12T17:34:33.574Z,98388.34
2023-01-12T17:37:08.268Z,98389.38
2023-01-12T17:39:36.867Z,98393.03
2023-01-12T17:42:23.750Z,98386.16
2023-01-12T17:44:50.879Z,98381.31
2023-01-12T17:47:17.859Z,98373.13
2023-01-12T17:49:46.156Z,98366.78
2023-01-12T17:52:13.073Z,98379.31
2023-01-12T17:54:42.331Z,98367.91
2023-01-12T17:57:09.412Z,98373.47
2023-01-12T17:59:36.414Z,98376.31
2023-01-12T18:02:03.931Z,98371.28
2023-01-12T18:04:31.689Z,98379.13
2023-01-12T18:06:59.089Z,98370.59
2023-01-12T18:09:28.191Z,98368.94
2023-01-12T18:11:55.159Z,98371.09
2023-01-12T18:14:25.686Z,98344.19
2023-01-12T18:16:52.572Z,98378.16
2023-01-12T18:19:19.711Z,98374.47
2023-01-12T18:21:46.856Z,98360.75
2023-01-12T18:24:13.805Z,98372.97
2023-01-12T18:26:40.762Z,98313.59
2023-01-12T18:29:08.096Z,98369.25
2023-01-12T18:31:37.724Z,98364.75
2023-01-12T18:34:06.359Z,98358.75
2023-01-12T18:36:36.342Z,98363.41
2023-01-12T18:39:06.131Z,98356.56
2023-01-12T18:41:51.814Z,98352.22
2023-01-12T18:44:18.725Z,98346.03
2023-01-12T18:47:04.384Z,98345.19
2023-01-12T18:49:34.114Z,98338.00
2023-01-12T18:52:20.415Z,98336.00
2023-01-12T18:54:48.397Z,98334.97
2023-01-12T18:57:19.617Z,98340.66
2023-01-12T18:59:48.480Z,98341.50
2023-01-12T19:02:16.278Z,98332.31
2023-01-12T19:04:46.278Z,98338.47
2023-01-12T19:07:15.502Z,98333.63
2023-01-12T19:09:42.474Z,98347.34
2023-01-12T19:12:09.527Z,98345.69
2023-01-12T19:14:55.025Z,98349.53
2023-01-12T19:17:27.663Z,98348.19
2023-01-12T19:19:55.945Z,98339.50
2023-01-12T19:22:42.356Z,98349.53
2023-01-12T19:25:36.868Z,98339.50
2023-01-12T19:28:23.621Z,98346.69
2023-01-12T19:30:50.935Z,98342.53
2023-01-12T19:33:18.278Z,98335.50
2023-01-12T19:35:47.163Z,98348.72
2023-01-12T19:38:14.963Z,98347.19
2023-01-12T19:40:54.846Z,98334.16
2023-01-12T19:43:26.460Z,98340.00
2023-01-12T19:45:58.846Z,98341.03
2023-01-12T19:48:27.053Z,98335.50
2023-01-12T19:50:54.325Z,98336.47
2023-01-12T19:53:26.136Z,98331.81
2023-01-12T19:55:53.421Z,98331.81
2023-01-12T19:58:22.331Z,98326.81
2023-01-12T20:00:50.063Z,98329.97
2023-01-12T20:03:19.854Z,98318.06
2023-01-12T20:05:51.039Z,98325.28
2023-01-12T20:08:23.729Z,98331.47
2023-01-12T20:10:59.351Z,98333.47
2023-01-12T20:13:26.996Z,98334.09
2023-01-12T20:15:56.930Z,98336.28
2023-01-12T20:18:24.031Z,98333.44
2023-01-12T20:20:51.259Z,98332.59
2023-01-12T20:23:20.307Z,98340.97
2023-01-12T20:25:47.393Z,98330.41
2023-01-12T20:28:15.071Z,98323.06
2023-01-12T20:30:43.140Z,98326.72
2023-01-12T20:33:10.916Z,98322.69
2023-01-12T20:35:39.375Z,98324.03
2023-01-12T20:38:07.206Z,98324.53
2023-01-12T20:40:34.425Z,98331.72
2023-01-12T20:43:01.579Z,98327.88
2023-01-12T20:45:28.536Z,98324.19
2023-01-12T20:47:56.203Z,98327.69
2023-01-12T20:50:25.705Z,98312.63
2023-01-12T20:52:54.414Z,98316.16
2023-01-12T20:55:21.881Z,98317.00
2023-01-12T20:57:49.335Z,98321.31
2023-01-12T21:00:17.004Z,98320.50
2023-01-12T21:02:44.112Z,98302.28
2023-01-12T21:05:11.145Z,98325.34
2023-01-12T21:07:38.152Z,98323.31
2023-01-12T21:10:07.450Z,98326.00
2023-01-12T21:12:34.753Z,98313.06
2023-01-12T21:15:01.706Z,98320.13
2023-01-12T21:17:28.646Z,98334.19
2023-01-12T21:19:55.640Z,98321.44
2023-01-12T21:22:22.541Z,98310.91
2023-01-12T21:24:50.655Z,98318.25
2023-01-12T21:27:17.705Z,98290.47
2023-01-12T21:29:46.126Z,98316.34
2023-01-12T21:32:13.245Z,98312.84
2023-01-12T21:34:40.261Z,98323.22
2023-01-12T21:37:07.926Z,98323.88
2023-01-12T21:39:34.973Z,98322.88
2023-01-12T21:42:20.433Z,98314.84
2023-01-12T21:44:47.528Z,98318.34
2023-01-12T21:47:14.650Z,98308.81
2023-01-12T21:49:41.575Z,98312.31
2023-01-12T21:52:08.493Z,98302.44
2023-01-12T21:54:35.451Z,98294.09
2023-01-12T21:57:02.429Z,98293.88
2023-01-12T21:59:29.383Z,98293.72
2023-01-12T22:01:56.521Z,98292.38
2023-01-12T22:04:25.969Z,98297.56
2023-01-12T22:06:53.516Z,98293.03
2023-01-12T22:09:21.054Z,98288.03
2023-01-12T22:11:47.947Z,98299.22
2023-01-12T22:14:14.872Z,98304.59
2023-01-12T22:16:41.918Z,98301.75
2023-01-12T22:19:09.000Z,98295.53
2023-01-12T22:21:36.434Z,98294.72
2023-01-12T22:24:04.075Z,98295.72
2023-01-12T22:26:32.860Z,98293.03
2023-01-12T22:28:59.887Z,98294.88
2023-01-12T22:31:27.008Z,98296.75
2023-01-12T22:34:06.793Z,98280.16
2023-01-12T22:36:43.227Z,98283.63
2023-01-12T22:39:13.703Z,98285.97
2023-01-12T22:41:41.091Z,98284.78
2023-01-12T22:44:08.081Z,98283.78
2023-01-12T22:46:35.757Z,98272.88
2023-01-12T22:49:02.831Z,98249.66
2023-01-12T22:51:30.135Z,98278.88
2023-01-12T22:53:57.863Z,98270.84
2023-01-12T22:56:25.404Z,98274.84
2023-01-12T22:58:55.380Z,98283.56
2023-01-12T23:01:26.236Z,98241.47
2023-01-12T23:03:57.193Z,98274.13
2023-01-12T23:06:25.783Z,98273.31
2023-01-12T23:08:52.885Z,98268.78
2023-01-12T23:11:26.002Z,98270.47
2023-01-12T23:13:55.149Z,98272.59
2023-01-12T23:16:22.376Z,98276.13
2023-01-12T23:18:50.652Z,98273.06
2023-01-12T23:21:20.682Z,98271.06
2023-01-12T23:23:50.461Z,98268.72
2023-01-12T23:26:23.072Z,98270.56
2023-01-12T23:28:57.783Z,98265.41
2023-01-12T23:31:27.777Z,98264.09
2023-01-12T23:33:55.570Z,98266.41
2023-01-12T23:36:24.989Z,98261.69
2023-01-12T23:39:01.151Z,98262.72
2023-01-12T23:41:30.075Z,98260.03
2023-01-12T23:44:02.316Z,98252.81
2023-01-12T23:46:30.431Z,98260.69
2023-01-12T23:48:58.172Z,98262.50
2023-01-12T23:51:27.126Z,98255.69
2023-01-12T23:53:55.286Z,98259.38
2023-01-12T23:56:23.874Z,98264.72
2023-01-12T23:58:50.917Z,98261.41
